createdAt,value
2022-11-20T00:00:00.843Z,15.85
2022-11-20T00:02:30.436Z,16.02
2022-11-20T00:04:59.947Z,16.07
2022-11-20T00:07:29.548Z,16.13
2022-11-20T00:10:00.495Z,16.13
2022-11-20T00:12:31.072Z,16.10
2022-11-20T00:15:01.285Z,16.06
2022-11-20T00:17:31.238Z,16.11
2022-11-20T00:20:01.747Z,16.09
2022-11-20T00:22:31.192Z,16.09
2022-11-20T00:25:02.069Z,16.09
2022-11-20T00:27:31.572Z,16.13
2022-11-20T00:30:01.122Z,16.13
2022-11-20T00:32:31.438Z,16.01
2022-11-20T00:35:00.967Z,16.19
2022-11-20T00:37:30.595Z,16.24
2022-11-20T00:40:00.111Z,16.20
2022-11-20T00:42:32.044Z,16.35
2022-11-20T00:45:01.740Z,16.26
2022-11-20T00:47:31.331Z,16.32
2022-11-20T00:50:00.953Z,16.36
2022-11-20T00:52:30.527Z,16.28
2022-11-20T00:55:00.079Z,16.28
2022-11-20T00:57:30.964Z,16.36
2022-11-20T01:00:00.430Z,16.42
2022-11-20T01:02:29.916Z,16.44
2022-11-20T01:04:59.702Z,16.40
2022-11-20T01:07:29.401Z,16.39
2022-11-20T01:09:58.966Z,16.40
2022-11-20T01:12:32.130Z,16.53
2022-11-20T01:15:02.039Z,16.51
2022-11-20T01:17:33.067Z,16.58
2022-11-20T01:20:02.633Z,16.50
2022-11-20T01:22:32.209Z,16.42
2022-11-20T01:25:01.842Z,16.40
2022-11-20T01:27:32.786Z,16.41
2022-11-20T01:30:02.262Z,16.36
2022-11-20T01:32:31.753Z,16.33
2022-11-20T01:35:01.506Z,16.50
2022-11-20T01:37:31.139Z,16.40
2022-11-20T01:40:00.662Z,16.35
2022-11-20T01:42:47.300Z,16.30
2022-11-20T01:45:35.153Z,16.39
2022-11-20T01:48:06.640Z,16.42
2022-11-20T01:50:36.472Z,16.39
2022-11-20T01:53:07.289Z,16.31
2022-11-20T01:55:38.561Z,16.31
2022-11-20T01:58:08.363Z,16.31
2022-11-20T02:00:37.861Z,16.39
2022-11-20T02:03:11.228Z,16.31
2022-11-20T02:05:43.939Z,16.28
2022-11-20T02:08:14.701Z,16.32
2022-11-20T02:10:44.250Z,16.24
2022-11-20T02:13:32.986Z,16.28
2022-11-20T02:16:03.191Z,16.34
2022-11-20T02:18:34.239Z,16.35
2022-11-20T02:21:08.070Z,16.32
2022-11-20T02:23:40.472Z,16.39
2022-11-20T02:26:13.828Z,16.29
2022-11-20T02:28:43.741Z,16.31
2022-11-20T02:31:13.237Z,16.29
2022-11-20T02:33:42.812Z,16.24
2022-11-20T02:36:13.933Z,16.24
2022-11-20T02:38:44.982Z,16.26
2022-11-20T02:41:15.923Z,16.33
2022-11-20T02:43:45.419Z,16.40
2022-11-20T02:46:14.987Z,16.44
2022-11-20T02:48:44.938Z,16.39
2022-11-20T02:51:14.432Z,16.30
2022-11-20T02:53:44.040Z,16.21
2022-11-20T02:56:13.528Z,16.39
2022-11-20T02:58:44.430Z,16.39
2022-11-20T03:01:13.988Z,16.43
2022-11-20T03:03:43.640Z,16.32
2022-11-20T03:06:13.235Z,16.28
2022-11-20T03:08:42.754Z,16.26
2022-11-20T03:11:12.272Z,16.18
2022-11-20T03:13:42.345Z,16.34
2022-11-20T03:16:14.841Z,16.56
2022-11-20T03:18:44.561Z,16.40
2022-11-20T03:21:14.737Z,16.36
2022-11-20T03:23:44.567Z,16.28
2022-11-20T03:26:15.261Z,16.37
2022-11-20T03:28:47.897Z,16.44
2022-11-20T03:31:19.658Z,16.32
2022-11-20T03:33:49.467Z,16.26
2022-11-20T03:36:20.014Z,16.27
2022-11-20T03:38:50.096Z,16.24
2022-11-20T03:41:20.633Z,16.23
2022-11-20T03:43:50.783Z,16.20
2022-11-20T03:46:21.984Z,16.14
2022-11-20T03:48:52.253Z,16.28
2022-11-20T03:51:22.983Z,16.27
2022-11-20T03:53:53.812Z,16.25
2022-11-20T03:56:24.895Z,16.23
2022-11-20T03:58:54.532Z,16.32
2022-11-20T04:01:26.149Z,16.34
2022-11-20T04:03:56.700Z,16.31
2022-11-20T04:06:27.342Z,16.28
2022-11-20T04:08:57.215Z,16.29
2022-11-20T04:11:27.722Z,16.37
2022-11-20T04:13:58.932Z,16.45
2022-11-20T04:16:31.344Z,16.39
2022-11-20T04:19:01.906Z,16.46
2022-11-20T04:21:31.629Z,16.32
2022-11-20T04:24:01.168Z,16.28
2022-11-20T04:26:31.862Z,16.39
2022-11-20T04:29:02.709Z,16.23
2022-11-20T04:31:34.574Z,16.31
2022-11-20T04:34:05.525Z,16.24
2022-11-20T04:36:35.393Z,16.26
2022-11-20T04:39:06.008Z,16.30
2022-11-20T04:41:36.846Z,16.24
2022-11-20T04:44:07.513Z,16.35
2022-11-20T04:46:39.541Z,16.35
2022-11-20T04:49:09.698Z,16.36
2022-11-20T04:51:39.340Z,16.30
2022-11-20T04:54:08.884Z,16.42
2022-11-20T04:56:38.884Z,16.35
2022-11-20T04:59:08.451Z,16.40
2022-11-20T05:01:39.512Z,16.36
2022-11-20T05:04:09.504Z,16.33
2022-11-20T05:06:39.040Z,16.27
2022-11-20T05:09:08.660Z,16.26
2022-11-20T05:11:38.279Z,16.18
2022-11-20T05:14:08.561Z,16.21
2022-11-20T05:16:40.206Z,16.22
2022-11-20T05:19:09.960Z,16.21
2022-11-20T05:21:39.433Z,16.29
2022-11-20T05:24:09.128Z,16.23
2022-11-20T05:26:38.654Z,16.17
2022-11-20T05:29:08.411Z,16.25
2022-11-20T05:31:38.296Z,16.23
2022-11-20T05:34:09.352Z,16.21
2022-11-20T05:36:38.869Z,16.27
2022-11-20T05:39:08.611Z,16.27
2022-11-20T05:41:38.060Z,16.23
2022-11-20T05:44:07.634Z,16.25
2022-11-20T05:46:37.078Z,16.19
2022-11-20T05:49:06.547Z,16.19
2022-11-20T05:51:37.513Z,16.15
2022-11-20T05:54:06.980Z,16.15
2022-11-20T05:56:36.993Z,16.16
2022-11-20T05:59:06.532Z,16.18
2022-11-20T06:01:37.118Z,16.26
2022-11-20T06:04:06.812Z,16.22
2022-11-20T06:06:37.733Z,16.18
2022-11-20T06:09:07.292Z,16.27
2022-11-20T06:11:37.432Z,16.23
2022-11-20T06:14:07.084Z,16.31
2022-11-20T06:16:36.639Z,16.38
2022-11-20T06:19:06.195Z,16.36
2022-11-20T06:21:37.292Z,16.35
2022-11-20T06:24:07.436Z,16.35
2022-11-20T06:26:37.159Z,16.45
2022-11-20T06:29:06.837Z,16.40
2022-11-20T06:31:38.736Z,16.44
2022-11-20T06:34:08.849Z,16.39
2022-11-20T06:36:39.950Z,16.46
2022-11-20T06:39:09.384Z,16.44
2022-11-20T06:41:39.161Z,16.54
2022-11-20T06:44:08.810Z,16.59
2022-11-20T06:46:38.522Z,16.63
2022-11-20T06:49:08.118Z,16.56
2022-11-20T06:51:37.829Z,16.63
2022-11-20T06:54:08.958Z,16.64
2022-11-20T06:56:38.475Z,16.67
2022-11-20T06:59:08.364Z,16.60
2022-11-20T07:01:38.100Z,16.62
2022-11-20T07:04:07.558Z,16.63
2022-11-20T07:06:37.208Z,16.69
2022-11-20T07:09:12.607Z,16.66
2022-11-20T07:11:43.287Z,16.69
2022-11-20T07:14:13.320Z,16.63
2022-11-20T07:16:43.325Z,16.65
2022-11-20T07:19:12.867Z,16.63
2022-11-20T07:21:42.346Z,16.60
2022-11-20T07:24:13.240Z,16.60
2022-11-20T07:26:43.007Z,16.64
2022-11-20T07:29:12.539Z,16.63
2022-11-20T07:31:42.054Z,16.59
2022-11-20T07:34:11.605Z,16.53
2022-11-20T07:36:41.429Z,16.60
2022-11-20T07:39:11.286Z,16.60
2022-11-20T07:41:42.432Z,16.64
2022-11-20T07:44:12.176Z,16.62
2022-11-20T07:46:41.753Z,16.68
2022-11-20T07:49:11.297Z,16.79
2022-11-20T07:51:42.080Z,16.78
2022-11-20T07:54:11.627Z,16.77
2022-11-20T07:56:42.556Z,16.80
2022-11-20T07:59:12.844Z,16.81
2022-11-20T08:01:42.566Z,16.91
2022-11-20T08:04:12.569Z,16.97
2022-11-20T08:06:42.072Z,16.94
2022-11-20T08:09:11.890Z,16.96
2022-11-20T08:12:01.248Z,16.95
2022-11-20T08:14:31.350Z,16.96
2022-11-20T08:17:01.450Z,17.00
2022-11-20T08:19:31.098Z,17.05
2022-11-20T08:22:00.644Z,17.01
2022-11-20T08:24:30.399Z,16.98
2022-11-20T08:27:02.155Z,17.17
2022-11-20T08:29:31.733Z,17.13
2022-11-20T08:32:01.448Z,17.13
2022-11-20T08:34:31.006Z,17.13
2022-11-20T08:37:01.206Z,17.12
2022-11-20T08:39:30.800Z,17.14
2022-11-20T08:42:00.493Z,17.11
2022-11-20T08:44:31.467Z,17.14
2022-11-20T08:47:02.315Z,17.14
2022-11-20T08:49:32.012Z,17.20
2022-11-20T08:52:01.837Z,17.25
2022-11-20T08:54:31.479Z,17.18
2022-11-20T08:57:01.153Z,17.20
2022-11-20T09:00:03.997Z,17.28
2022-11-20T09:02:21.810Z,17.26
2022-11-20T09:04:51.525Z,17.28
2022-11-20T09:07:21.802Z,17.40
2022-11-20T09:10:16.507Z,17.41
2022-11-20T09:12:41.961Z,17.37
2022-11-20T09:15:13.535Z,17.39
2022-11-20T09:17:43.284Z,17.35
2022-11-20T09:20:12.979Z,17.46
2022-11-20T09:22:42.822Z,17.36
2022-11-20T09:25:12.319Z,17.47
2022-11-20T09:27:44.645Z,17.40
2022-11-20T09:30:16.279Z,17.52
2022-11-20T09:32:45.790Z,17.29
2022-11-20T09:35:15.582Z,17.69
2022-11-20T09:37:45.103Z,17.69
2022-11-20T09:40:21.139Z,17.90
2022-11-20T09:42:55.730Z,17.83
2022-11-20T09:45:32.415Z,17.89
2022-11-20T09:48:10.176Z,18.01
2022-11-20T09:50:45.409Z,17.98
2022-11-20T09:53:17.694Z,18.02
2022-11-20T09:55:47.922Z,18.23
2022-11-20T09:58:23.480Z,18.23
2022-11-20T10:00:57.508Z,18.39
2022-11-20T10:03:36.631Z,18.44
2022-11-20T10:06:08.198Z,18.44
2022-11-20T10:08:42.825Z,18.47
2022-11-20T10:11:17.166Z,18.47
2022-11-20T10:13:54.633Z,18.56
2022-11-20T10:16:28.729Z,18.66
2022-11-20T10:19:06.041Z,18.82
2022-11-20T10:21:41.917Z,18.79
2022-11-20T10:24:26.382Z,18.93
2022-11-20T10:26:59.956Z,18.84
2022-11-20T10:29:31.769Z,19.17
2022-11-20T10:32:05.423Z,19.18
2022-11-20T10:34:46.535Z,19.28
2022-11-20T10:37:18.234Z,19.26
2022-11-20T10:39:53.534Z,19.36
2022-11-20T10:42:27.280Z,19.40
2022-11-20T10:45:06.300Z,19.48
2022-11-20T10:47:38.092Z,19.50
2022-11-20T10:50:11.923Z,19.40
2022-11-20T10:52:47.758Z,19.48
2022-11-20T10:55:27.300Z,19.51
2022-11-20T10:58:03.283Z,19.54
2022-11-20T11:00:33.441Z,19.47
2022-11-20T11:03:04.508Z,19.47
2022-11-20T11:05:38.332Z,19.54
2022-11-20T11:08:12.149Z,19.64
2022-11-20T11:10:46.114Z,19.58
2022-11-20T11:13:23.964Z,19.56
2022-11-20T11:15:54.463Z,19.39
2022-11-20T11:18:29.447Z,19.55
2022-11-20T11:20:59.471Z,19.43
2022-11-20T11:23:32.998Z,19.40
2022-11-20T11:26:03.126Z,19.58
2022-11-20T11:28:32.863Z,19.45
2022-11-20T11:31:02.683Z,19.66
2022-11-20T11:33:35.492Z,19.68
2022-11-20T11:36:18.615Z,19.77
2022-11-20T11:38:48.134Z,19.66
2022-11-20T11:41:20.943Z,19.64
2022-11-20T11:44:11.387Z,19.63
2022-11-20T11:46:42.672Z,19.55
2022-11-20T11:49:19.174Z,19.76
2022-11-20T11:51:57.170Z,19.68
2022-11-20T11:54:28.638Z,19.66
2022-11-20T11:57:01.267Z,19.54
2022-11-20T11:59:35.985Z,19.51
2022-11-20T12:02:15.031Z,19.43
2022-11-20T12:04:48.401Z,19.68
2022-11-20T12:07:45.391Z,19.61
2022-11-20T12:10:16.706Z,19.62
2022-11-20T12:12:48.870Z,19.63
2022-11-20T12:15:25.019Z,19.63
2022-11-20T12:17:54.712Z,19.61
2022-11-20T12:20:28.200Z,19.56
2022-11-20T12:23:02.616Z,19.60
2022-11-20T12:25:34.468Z,19.70
2022-11-20T12:28:22.252Z,19.60
2022-11-20T12:30:55.558Z,19.59
2022-11-20T12:33:33.569Z,19.56
2022-11-20T12:36:09.527Z,19.48
2022-11-20T12:38:50.343Z,19.44
2022-11-20T12:41:39.979Z,19.39
2022-11-20T12:44:35.545Z,19.60
2022-11-20T12:47:13.558Z,19.46
2022-11-20T12:49:49.783Z,19.36
2022-11-20T12:52:27.485Z,19.49
2022-11-20T12:55:05.180Z,19.40
2022-11-20T12:57:39.258Z,19.46
2022-11-20T13:00:15.755Z,19.42
2022-11-20T13:02:56.479Z,19.37
2022-11-20T13:05:29.523Z,19.22
2022-11-20T13:08:02.552Z,19.20
2022-11-20T13:10:35.293Z,19.30
2022-11-20T13:13:11.760Z,19.24
2022-11-20T13:15:49.954Z,19.31
2022-11-20T13:18:27.604Z,19.33
2022-11-20T13:20:57.283Z,19.45
2022-11-20T13:23:28.856Z,19.50
2022-11-20T13:26:06.133Z,19.33
2022-11-20T13:28:36.643Z,19.25
2022-11-20T13:31:06.223Z,19.40
2022-11-20T13:33:37.217Z,19.23
2022-11-20T13:36:07.636Z,19.13
2022-11-20T13:38:46.207Z,19.23
2022-11-20T13:41:32.456Z,19.13
2022-11-20T13:44:09.170Z,19.09
2022-11-20T13:46:39.915Z,19.02
2022-11-20T13:49:10.786Z,18.96
2022-11-20T13:51:44.621Z,18.99
2022-11-20T13:54:30.866Z,18.88
2022-11-20T13:57:06.955Z,19.05
2022-11-20T13:59:42.489Z,18.87
2022-11-20T14:02:14.226Z,19.01
2022-11-20T14:04:45.522Z,18.93
2022-11-20T14:07:15.260Z,18.75
2022-11-20T14:09:54.037Z,18.84
2022-11-20T14:12:29.567Z,18.85
2022-11-20T14:14:59.994Z,18.77
2022-11-20T14:17:32.801Z,18.67
2022-11-20T14:20:04.168Z,18.58
2022-11-20T14:22:33.930Z,18.58
2022-11-20T14:25:07.492Z,18.60
2022-11-20T14:27:38.515Z,18.52
2022-11-20T14:30:14.946Z,18.48
2022-11-20T14:32:46.117Z,18.49
2022-11-20T14:35:19.981Z,18.35
2022-11-20T14:37:50.004Z,18.30
2022-11-20T14:40:31.512Z,18.22
2022-11-20T14:43:01.396Z,18.20
2022-11-20T14:45:31.011Z,18.27
2022-11-20T14:48:01.737Z,18.23
2022-11-20T14:50:31.575Z,18.17
2022-11-20T14:53:01.924Z,18.16
2022-11-20T14:55:33.877Z,18.14
2022-11-20T14:58:04.498Z,18.00
2022-11-20T15:00:34.822Z,18.00
2022-11-20T15:03:04.697Z,18.01
2022-11-20T15:05:47.065Z,17.98
2022-11-20T15:08:17.247Z,17.94
2022-11-20T15:10:52.131Z,17.92
2022-11-20T15:13:26.770Z,17.98
2022-11-20T15:15:57.944Z,17.85
2022-11-20T15:18:30.284Z,17.80
2022-11-20T15:21:00.761Z,17.83
2022-11-20T15:23:31.900Z,17.81
2022-11-20T15:26:02.915Z,17.78
2022-11-20T15:28:33.845Z,17.78
2022-11-20T15:31:04.162Z,17.71
2022-11-20T15:33:34.032Z,17.68
2022-11-20T15:36:03.995Z,17.68
2022-11-20T15:38:33.522Z,17.70
2022-11-20T15:41:05.425Z,17.71
2022-11-20T15:43:35.033Z,17.66
2022-11-20T15:46:06.090Z,17.68
2022-11-20T15:48:42.003Z,17.63
2022-11-20T15:51:22.857Z,17.63
2022-11-20T15:53:52.370Z,17.62
2022-11-20T15:56:23.336Z,17.58
2022-11-20T15:58:52.847Z,17.47
2022-11-20T16:01:23.232Z,17.37
2022-11-20T16:03:52.968Z,17.28
2022-11-20T16:06:22.665Z,17.22
2022-11-20T16:08:52.186Z,17.22
2022-11-20T16:11:23.222Z,17.11
2022-11-20T16:14:10.860Z,17.05
2022-11-20T16:16:42.409Z,16.93
2022-11-20T16:19:12.594Z,16.96
2022-11-20T16:21:42.578Z,16.87
2022-11-20T16:24:13.794Z,16.90
2022-11-20T16:26:44.880Z,16.81
2022-11-20T16:29:15.852Z,16.74
2022-11-20T16:31:45.402Z,16.70
2022-11-20T16:34:17.666Z,16.66
2022-11-20T16:36:48.051Z,16.63
2022-11-20T16:39:23.040Z,16.62
2022-11-20T16:41:54.760Z,16.61
2022-11-20T16:44:24.633Z,16.66
2022-11-20T16:46:54.735Z,16.57
2022-11-20T16:49:25.006Z,16.54
2022-11-20T16:51:55.149Z,16.60
2022-11-20T16:54:25.035Z,16.57
2022-11-20T16:56:56.112Z,16.53
2022-11-20T16:59:25.897Z,16.52
2022-11-20T17:01:55.696Z,16.51
2022-11-20T17:04:25.907Z,16.46
2022-11-20T17:06:55.772Z,16.47
2022-11-20T17:09:25.255Z,16.57
2022-11-20T17:11:57.791Z,16.53
2022-11-20T17:14:27.757Z,16.51
2022-11-20T17:16:58.042Z,16.47
2022-11-20T17:19:27.768Z,16.40
2022-11-20T17:21:57.456Z,16.36
2022-11-20T17:24:31.568Z,16.32
2022-11-20T17:27:03.103Z,16.28
2022-11-20T17:29:34.601Z,16.29
2022-11-20T17:32:06.661Z,16.27
2022-11-20T17:34:36.576Z,16.25
2022-11-20T17:37:06.957Z,16.23
2022-11-20T17:39:36.899Z,16.21
2022-11-20T17:42:25.475Z,16.17
2022-11-20T17:44:55.298Z,16.17
2022-11-20T17:47:25.022Z,16.15
2022-11-20T17:49:55.639Z,16.13
2022-11-20T17:52:25.424Z,16.15
2022-11-20T17:54:56.236Z,16.11
2022-11-20T17:57:45.292Z,16.11
2022-11-20T18:00:17.387Z,16.14
2022-11-20T18:02:47.643Z,16.09
2022-11-20T18:05:18.658Z,16.08
2022-11-20T18:07:48.569Z,16.05
2022-11-20T18:10:18.301Z,16.06
2022-11-20T18:12:49.562Z,16.11
2022-11-20T18:15:19.328Z,16.05
2022-11-20T18:17:49.309Z,16.04
2022-11-20T18:20:39.647Z,16.05
2022-11-20T18:23:09.223Z,16.01
2022-11-20T18:25:40.008Z,15.99
2022-11-20T18:28:10.972Z,16.01
2022-11-20T18:30:40.700Z,15.99
2022-11-20T18:33:10.430Z,15.97
2022-11-20T18:35:43.044Z,15.96
2022-11-20T18:38:12.627Z,15.97
2022-11-20T18:40:42.226Z,15.92
2022-11-20T18:43:31.077Z,15.91
2022-11-20T18:46:04.169Z,15.94
2022-11-20T18:48:33.704Z,15.94
2022-11-20T18:51:06.807Z,15.88
2022-11-20T18:53:37.036Z,15.86
2022-11-20T18:56:07.368Z,15.86
2022-11-20T18:58:39.336Z,15.86
2022-11-20T19:01:09.687Z,15.87
2022-11-20T19:03:39.236Z,15.82
2022-11-20T19:06:13.535Z,15.78
2022-11-20T19:08:43.447Z,15.79
2022-11-20T19:11:13.667Z,15.80
2022-11-20T19:13:45.402Z,15.80
2022-11-20T19:16:16.238Z,15.79
2022-11-20T19:18:45.934Z,15.80
2022-11-20T19:21:16.331Z,15.86
2022-11-20T19:23:48.732Z,15.84
2022-11-20T19:26:19.137Z,15.86
2022-11-20T19:28:50.138Z,15.88
2022-11-20T19:31:24.455Z,15.91
2022-11-20T19:33:55.004Z,15.91
2022-11-20T19:36:25.421Z,15.84
2022-11-20T19:38:55.473Z,15.84
2022-11-20T19:41:29.053Z,15.81
2022-11-20T19:44:00.870Z,15.82
2022-11-20T19:46:31.187Z,15.81
2022-11-20T19:49:00.913Z,15.77
2022-11-20T19:51:31.433Z,15.75
2022-11-20T19:54:01.574Z,15.72
2022-11-20T19:56:31.749Z,15.70
2022-11-20T19:59:02.897Z,15.65
2022-11-20T20:01:33.100Z,15.71
2022-11-20T20:04:05.144Z,15.79
2022-11-20T20:06:35.921Z,15.71
2022-11-20T20:09:06.624Z,15.70
2022-11-20T20:11:36.764Z,15.73
2022-11-20T20:14:08.789Z,15.70
2022-11-20T20:16:38.894Z,15.74
2022-11-20T20:19:08.492Z,15.63
2022-11-20T20:21:38.234Z,15.59
2022-11-20T20:24:08.731Z,15.66
2022-11-20T20:26:38.357Z,15.61
2022-11-20T20:29:09.428Z,15.57
2022-11-20T20:31:38.980Z,15.53
2022-11-20T20:34:08.597Z,15.46
2022-11-20T20:36:38.200Z,15.42
2022-11-20T20:39:07.947Z,15.43
2022-11-20T20:41:37.468Z,15.40
2022-11-20T20:44:26.498Z,15.34
2022-11-20T20:46:57.687Z,15.32
2022-11-20T20:49:27.223Z,15.30
2022-11-20T20:51:57.025Z,15.29
2022-11-20T20:54:30.238Z,15.30
2022-11-20T20:57:02.715Z,15.28
2022-11-20T20:59:32.305Z,15.22
2022-11-20T21:02:03.304Z,15.19
2022-11-20T21:04:33.899Z,15.21
2022-11-20T21:07:03.573Z,15.22
2022-11-20T21:09:33.269Z,15.21
2022-11-20T21:12:03.333Z,15.20
2022-11-20T21:14:33.602Z,15.22
2022-11-20T21:17:04.916Z,15.29
2022-11-20T21:19:34.459Z,15.28
2022-11-20T21:22:03.795Z,15.29
2022-11-20T21:24:34.040Z,15.31
2022-11-20T21:27:04.927Z,15.26
2022-11-20T21:29:34.504Z,15.28
2022-11-20T21:32:05.829Z,15.27
2022-11-20T21:34:35.417Z,15.31
2022-11-20T21:37:05.803Z,15.29
2022-11-20T21:39:50.625Z,15.29
2022-11-20T21:42:20.264Z,15.31
2022-11-20T21:44:49.801Z,15.34
2022-11-20T21:47:20.693Z,15.35
2022-11-20T21:49:50.422Z,15.38
2022-11-20T21:52:20.266Z,15.42
2022-11-20T21:54:50.133Z,15.42
2022-11-20T21:57:19.659Z,15.52
2022-11-20T21:59:49.179Z,15.52
2022-11-20T22:02:20.080Z,15.60
2022-11-20T22:04:50.017Z,15.58
2022-11-20T22:07:19.607Z,15.61
2022-11-20T22:09:49.244Z,15.64
2022-11-20T22:12:19.517Z,15.63
2022-11-20T22:14:49.021Z,15.64
2022-11-20T22:17:40.584Z,15.63
2022-11-20T22:20:11.007Z,15.63
2022-11-20T22:22:41.248Z,15.71
2022-11-20T22:25:10.930Z,15.66
2022-11-20T22:27:40.488Z,15.67
2022-11-20T22:30:10.817Z,15.64
2022-11-20T22:32:41.748Z,15.65
2022-11-20T22:35:11.279Z,15.70
2022-11-20T22:37:40.815Z,15.64
2022-11-20T22:40:10.883Z,15.60
2022-11-20T22:42:40.399Z,15.61
2022-11-20T22:45:10.369Z,15.61
2022-11-20T22:47:41.452Z,15.65
2022-11-20T22:50:11.521Z,15.60
2022-11-20T22:52:41.105Z,15.56
2022-11-20T22:55:15.064Z,15.54
2022-11-20T22:57:45.896Z,15.54
2022-11-20T23:00:16.000Z,15.55
2022-11-20T23:02:47.616Z,15.60
2022-11-20T23:05:17.132Z,15.63
2022-11-20T23:07:46.714Z,15.60
2022-11-20T23:10:16.306Z,15.55
2022-11-20T23:12:46.449Z,15.51
2022-11-20T23:15:16.327Z,15.48
2022-11-20T23:17:47.384Z,15.45
2022-11-20T23:20:16.939Z,15.44
2022-11-20T23:22:46.919Z,15.42
2022-11-20T23:25:16.541Z,15.52
2022-11-20T23:27:46.043Z,15.54
2022-11-20T23:30:15.945Z,15.54
2022-11-20T23:32:45.435Z,15.53
2022-11-20T23:35:16.487Z,15.65
2022-11-20T23:37:46.073Z,15.72
2022-11-20T23:40:15.920Z,15.75
2022-11-20T23:42:59.239Z,15.85
2022-11-20T23:45:28.827Z,15.79
2022-11-20T23:47:58.302Z,15.72
2022-11-20T23:50:29.164Z,15.77
2022-11-20T23:52:58.658Z,15.69
2022-11-20T23:55:28.626Z,15.65
2022-11-20T23:57:58.361Z,15.62
